Flight Track Log - Related Links

Times and Time Zones

All times are in EDT time to prevent confusion due to time zone crossing. See the ASQ3811 flight status page for this flight to view local times or setup timezone preferences in your user account.

Time Position Orientation Groundspeed Altitude Reporting Facility
EDT Latitude Longitude Course Direction KTS MPH feet Rate Location/Type
Thu 12:06:52 PM 40.6500 -74.1833 North 168 193 2,100  Level New York TRACON
Thu 12:09:05 PM 40.7047 -74.1764 North 244 281 6,100 1,919 Climbing Boston Center
Thu 12:10:09 PM 40.7200 -74.0725 37° Northeast 283 326 8,400 1,902 Climbing Boston Center
Thu 12:11:00 PM 41.3500 -73.8966 349° North  Level Estimated
Thu 12:11:00 PM 40.8373 -73.9960 37° Northeast  Level FlightAware Approximate
Thu 12:11:08 PM 40.7397 -73.9589 77° East 293 337 10,000  Level Boston Center
Thu 12:12:00 PM 41.4492 -73.8550 North  Level Estimated
Thu 12:12:10 PM 40.8142 -73.8967 32° Northeast 327 376 10,400  Level Boston Center
Thu 12:13:13 PM 40.8992 -73.8267 32° Northeast 356 410 11,500 1,210 Climbing Boston Center
Thu 12:14:14 PM 41.0025 -73.7369 33° Northeast 370 426 12,900 1,240 Climbing Boston Center
Thu 12:15:14 PM 41.0911 -73.6583 34° Northeast 383 441 14,000 1,091 Climbing Boston Center
Thu 12:16:15 PM 41.1814 -73.5800 33° Northeast 388 447 15,100 1,082 Climbing Boston Center
Thu 12:17:16 PM 41.2800 -73.4933 33° Northeast 394 453 16,200 1,016 Climbing Boston Center
Thu 12:18:19 PM 41.3725 -73.4114 34° Northeast 399 459 17,200 968 Climbing Boston Center
Thu 12:19:20 PM 41.4714 -73.3228 34° Northeast 406 467 18,200 942 Climbing Boston Center
Thu 12:20:20 PM 41.5472 -73.2261 44° Northeast 409 471 19,100 919 Climbing Boston Center
Thu 12:21:24 PM 41.6344 -73.1283 40° Northeast 411 473 20,100 960 Climbing Boston Center
Thu 12:22:25 PM 41.7417 -73.1206 North 397 457 21,100 942 Climbing Boston Center
Thu 12:23:25 PM 41.8522 -73.1386 353° North 399 459 22,000 823 Climbing Boston Center
Thu 12:24:29 PM 41.9622 -73.1586 352° North 400 460 22,800 768 Climbing Boston Center
Thu 12:25:30 PM 42.0742 -73.1786 352° North 402 463 23,600 843 Climbing Boston Center
Thu 12:26:30 PM 42.2103 -73.2036 352° North 409 471 24,500 950 Climbing Boston Center
Thu 12:27:30 PM 42.3250 -73.2244 352° North 412 474 25,500 968 Climbing Boston Center
Thu 12:28:34 PM 42.4403 -73.2417 354° North 411 473 26,500 732 Climbing Boston Center
Thu 12:29:33 PM 42.5544 -73.2633 352° North 409 471 27,000 244 Climbing Boston Center
Thu 12:30:37 PM 42.6736 -73.2856 352° North 425 489 27,000  Level Boston Center
Thu 12:31:37 PM 42.7956 -73.3081 352° North 438 504 27,000  Level Boston Center
Thu 12:32:38 PM 42.9211 -73.2836 North 460 529 27,000  Level Boston Center
Thu 12:33:39 PM 43.0458 -73.2250 19° North 471 542 27,000  Level Boston Center
Thu 12:34:42 PM 43.1700 -73.1672 19° North 471 542 27,000  Level Boston Center
Thu 12:35:43 PM 43.2911 -73.1089 19° North 463 533 27,000  Level Boston Center
Thu 12:36:45 PM 43.4275 -73.0453 19° North 459 528 27,000  Level Boston Center
Thu 12:37:47 PM 43.5319 -72.9947 19° North 458 527 27,000  Level Boston Center
Thu 12:38:48 PM 43.6511 -72.9392 19° North 455 524 27,000  Level Boston Center
Thu 12:39:48 PM 43.7939 -72.8686 20° North 454 522 27,000  Level Boston Center
Thu 12:40:48 PM 43.9147 -72.8089 20° North 459 528 27,000  Level Boston Center
Thu 12:41:52 PM 44.0253 -72.7578 18° North 458 527 27,000  Level Boston Center
Thu 12:42:53 PM 44.1508 -72.6967 19° North 471 542 27,000  Level Boston Center
Thu 12:43:53 PM 44.2986 -72.6233 20° North 475 547 27,000  Level Boston Center
Thu 12:44:54 PM 44.4147 -72.5664 19° North 455 524 27,000  Level Boston Center
Thu 12:45:56 PM 44.5303 -72.5097 19° North 448 516 27,000  Level Boston Center
Thu 12:46:56 PM 44.6428 -72.4542 19° North 439 505 27,000  Level Boston Center
Thu 12:48:00 PM 44.7572 -72.3975 19° North 439 505 27,000  Level Boston Center
Thu 12:49:00 PM 44.8747 -72.3372 20° North 451 519 27,000  Level Boston Center
Thu 12:50:01 PM 45.0158 -72.2675 19° North 453 521 27,000 -137 Level Boston Center
Thu 12:51:55 PM 45.2167 -72.1333 25° Northeast 430 495 26,600 -483 Descending Montreal Center
Thu 12:52:55 PM 45.3167 -72.0833 19° North 390 449 25,600 -800 Descending Montreal Center
Thu 12:53:55 PM 45.4167 -72.0333 19° North 370 426 25,000 -300 Descending Montreal Center
Thu 12:54:55 PM 45.5167 -71.9667 25° Northeast 380 437 25,000  Level Montreal Center
Thu 12:55:55 PM 45.6167 -71.9167 19° North 380 437 25,000  Level Montreal Center
Thu 12:56:55 PM 45.7167 -71.8833 13° North 380 437 25,000  Level Montreal Center
Thu 12:57:55 PM 45.8167 -71.8333 19° North 380 437 25,000  Level Montreal Center
Thu 12:58:55 PM 45.9167 -71.7667 25° Northeast 380 437 25,000  Level Montreal Center
Thu 12:59:55 PM 46.0167 -71.7167 19° North 380 437 25,000 -800 Level Montreal Center
Thu 01:00:55 PM 46.1167 -71.6833 13° North 370 426 23,400 -1,850 Descending Montreal Center
Thu 01:01:55 PM 46.2167 -71.6833 360° North 360 414 21,300 -2,000 Descending Montreal Center
Thu 01:02:55 PM 46.3167 -71.6500 13° North 350 403 19,400 -2,150 Descending Montreal Center
Thu 01:03:55 PM 46.3833 -71.5667 41° Northeast 350 403 17,000 -2,150 Descending Montreal Center
Thu 01:04:55 PM 46.4667 -71.4833 35° Northeast 350 403 15,100 -1,950 Descending Montreal Center
Thu 01:05:55 PM 46.5333 -71.4000 41° Northeast 340 391 13,100 -2,000 Descending Montreal Center
Thu 01:06:55 PM 46.6167 -71.3333 29° Northeast 310 357 11,100 -1,650 Descending Montreal Center
Thu 01:07:55 PM 46.6833 -71.2667 34° Northeast 280 322 9,800 -1,200 Descending Montreal Center
Thu 01:08:55 PM 46.7333 -71.2000 42° Northeast 280 322 8,700 -1,300 Descending Montreal Center
Thu 01:09:55 PM 46.8000 -71.1333 34° Northeast 270 311 7,200 -1,450 Descending Montreal Center
Thu 01:10:55 PM 46.8500 -71.0833 34° Northeast 250 288 5,800 -1,400 Descending Montreal Center
Thu 01:11:55 PM 46.9167 -71.1333 333° Northwest 220 253 4,400 -1,200 Descending Montreal Center
Thu 01:12:55 PM 46.9000 -71.2000 250° West 190 219 3,400 -950 Descending Montreal Center
Thu 01:13:55 PM 46.8667 -71.2500 226° Southwest 160 184 2,500 -900 Descending Montreal Center
Thu 01:14:55 PM 46.8333 -71.3000 226° Southwest 130 150 1,600 -800 Descending Montreal Center
Thu 01:15:55 PM 46.8167 -71.3333 234° Southwest 120 138 900 -650 Descending Montreal Center
Thu 01:16:55 PM 46.7833 -71.3667 214° Southwest 130 150 300 -600 Descending Montreal Center

Login

Don't have an account? Register now (free) for customized features, flight alerts, and more!